createdAt,value
2018-08-22T00:01:52.279Z,99.90
2018-08-22T00:04:20.819Z,99.90
2018-08-22T00:06:49.314Z,99.90
2018-08-22T00:09:17.852Z,99.90
2018-08-22T00:11:46.302Z,99.90
2018-08-22T00:14:14.730Z,99.90
2018-08-22T00:16:43.235Z,99.90
2018-08-22T00:19:11.659Z,99.90
2018-08-22T00:21:40.141Z,99.90
2018-08-22T00:24:08.636Z,99.90
2018-08-22T00:26:37.163Z,99.90
2018-08-22T00:29:05.895Z,99.90
2018-08-22T00:31:34.323Z,99.90
2018-08-22T00:34:02.794Z,99.90
2018-08-22T00:36:31.215Z,99.90
2018-08-22T00:38:59.650Z,99.90
2018-08-22T00:41:28.212Z,99.90
2018-08-22T00:43:56.764Z,99.90
2018-08-22T00:46:25.279Z,99.90
2018-08-22T00:48:53.703Z,99.90
2018-08-22T00:51:22.315Z,99.90
2018-08-22T00:53:50.850Z,99.90
2018-08-22T00:56:19.298Z,99.90
2018-08-22T00:58:47.779Z,99.90
2018-08-22T01:01:16.216Z,99.90
2018-08-22T01:03:44.723Z,99.90
2018-08-22T01:06:13.188Z,99.90
2018-08-22T01:08:41.635Z,99.90
2018-08-22T01:11:10.172Z,99.90
2018-08-22T01:13:38.579Z,99.90
2018-08-22T01:16:07.217Z,99.90
2018-08-22T01:18:35.634Z,99.90
2018-08-22T01:21:04.083Z,99.90
2018-08-22T01:23:32.492Z,99.90
2018-08-22T01:26:00.947Z,99.90
2018-08-22T01:28:29.386Z,99.90
2018-08-22T01:30:57.851Z,99.90
2018-08-22T01:33:26.286Z,99.90
2018-08-22T01:35:54.723Z,99.90
2018-08-22T01:38:23.219Z,99.90
2018-08-22T01:40:51.655Z,99.90
2018-08-22T01:43:20.475Z,99.90
2018-08-22T01:45:48.898Z,99.90
2018-08-22T01:48:17.398Z,99.90
2018-08-22T01:50:46.083Z,99.90
2018-08-22T01:53:14.532Z,99.90
2018-08-22T01:55:42.998Z,99.90
2018-08-22T01:58:11.459Z,99.90
2018-08-22T02:00:39.884Z,99.90
2018-08-22T02:03:08.367Z,99.90
2018-08-22T02:05:36.855Z,99.90
2018-08-22T02:08:05.335Z,99.90
2018-08-22T02:10:33.810Z,99.90
2018-08-22T02:13:02.228Z,99.90
2018-08-22T02:15:30.642Z,99.90
2018-08-22T02:17:59.089Z,99.90
2018-08-22T02:20:27.514Z,99.90
2018-08-22T02:22:56.207Z,99.90
2018-08-22T02:25:24.632Z,99.90
2018-08-22T02:27:53.075Z,99.90
2018-08-22T02:30:21.511Z,99.90
2018-08-22T02:32:49.946Z,99.90
2018-08-22T02:35:18.383Z,99.90
2018-08-22T02:37:46.836Z,99.90
2018-08-22T02:40:15.407Z,99.90
2018-08-22T02:42:43.898Z,99.90
2018-08-22T02:45:12.308Z,99.90
2018-08-22T02:47:40.856Z,99.90
2018-08-22T02:50:09.291Z,99.90
2018-08-22T02:52:37.743Z,99.90
2018-08-22T02:55:06.193Z,99.90
2018-08-22T02:57:34.672Z,99.90
2018-08-22T03:00:03.090Z,99.90
2018-08-22T03:02:31.544Z,99.90
2018-08-22T03:05:00.016Z,99.90
2018-08-22T03:07:28.454Z,99.90
2018-08-22T03:09:57.394Z,99.90
2018-08-22T03:12:32.360Z,99.90
2018-08-22T03:15:00.803Z,99.90
2018-08-22T03:17:29.226Z,99.90
2018-08-22T03:19:57.659Z,99.90
2018-08-22T03:22:26.228Z,99.90
2018-08-22T03:24:54.783Z,99.90
2018-08-22T03:27:23.276Z,99.90
2018-08-22T03:29:51.769Z,99.90
2018-08-22T03:32:20.204Z,99.90
2018-08-22T03:34:48.632Z,99.90
2018-08-22T03:37:17.442Z,99.90
2018-08-22T03:39:45.856Z,99.90
2018-08-22T03:42:14.320Z,99.90
2018-08-22T03:44:42.750Z,99.90
2018-08-22T03:47:11.193Z,99.90
2018-08-22T03:49:39.655Z,99.90
2018-08-22T03:52:08.115Z,99.90
2018-08-22T03:54:36.539Z,99.90
2018-08-22T03:57:05.199Z,99.90
2018-08-22T03:59:33.614Z,99.90
2018-08-22T04:02:02.298Z,99.90
2018-08-22T04:04:30.739Z,99.90
2018-08-22T04:06:59.215Z,99.90
2018-08-22T04:09:27.643Z,99.90
2018-08-22T04:11:56.080Z,99.90
2018-08-22T04:14:24.487Z,99.90
2018-08-22T04:16:53.040Z,99.90
2018-08-22T04:19:21.458Z,99.90
2018-08-22T04:21:50.016Z,99.90
2018-08-22T04:24:18.491Z,99.90
2018-08-22T04:26:47.009Z,99.90
2018-08-22T04:29:15.436Z,99.90
2018-08-22T04:31:43.876Z,99.90
2018-08-22T04:34:12.316Z,99.90
2018-08-22T04:36:40.828Z,99.90
2018-08-22T04:39:10.186Z,99.90
2018-08-22T04:41:38.709Z,99.90
2018-08-22T04:44:07.147Z,99.90
2018-08-22T04:46:35.567Z,99.90
2018-08-22T04:49:04.113Z,99.90
2018-08-22T04:51:32.534Z,99.90
2018-08-22T04:54:01.011Z,99.90
2018-08-22T04:56:29.536Z,99.90
2018-08-22T04:58:57.963Z,99.90
2018-08-22T05:01:26.398Z,99.90
2018-08-22T05:03:54.873Z,99.90
2018-08-22T05:06:23.337Z,99.90
2018-08-22T05:08:51.778Z,99.90
2018-08-22T05:11:20.320Z,99.90
2018-08-22T05:13:48.787Z,99.90
2018-08-22T05:16:17.222Z,99.90
2018-08-22T05:18:45.654Z,99.90
2018-08-22T05:21:14.094Z,99.90
2018-08-22T05:23:42.501Z,99.90
2018-08-22T05:26:10.959Z,99.90
2018-08-22T05:28:39.411Z,99.90
2018-08-22T05:31:07.945Z,99.90
2018-08-22T05:33:36.460Z,99.90
2018-08-22T05:36:04.945Z,99.90
2018-08-22T05:38:33.347Z,99.90
2018-08-22T05:41:01.915Z,99.90
2018-08-22T05:43:30.359Z,99.90
2018-08-22T05:45:58.795Z,99.90
2018-08-22T05:48:27.228Z,99.90
2018-08-22T05:50:55.659Z,99.90
2018-08-22T05:53:24.084Z,99.90
2018-08-22T05:55:52.516Z,99.90
2018-08-22T05:58:20.940Z,99.90
2018-08-22T06:00:49.549Z,99.90
2018-08-22T06:03:18.024Z,99.90
2018-08-22T06:05:46.641Z,99.90
2018-08-22T06:08:15.190Z,99.90
2018-08-22T06:10:43.603Z,99.90
2018-08-22T06:13:12.104Z,99.90
2018-08-22T06:15:40.608Z,99.90
2018-08-22T06:18:09.018Z,99.90
2018-08-22T06:20:37.441Z,99.90
2018-08-22T06:23:05.908Z,99.90
2018-08-22T06:25:34.366Z,99.90
2018-08-22T06:28:02.771Z,99.90
2018-08-22T06:30:31.236Z,99.90
2018-08-22T06:32:59.696Z,99.90
2018-08-22T06:35:28.115Z,99.90
2018-08-22T06:37:56.708Z,99.90
2018-08-22T06:40:25.227Z,99.90
2018-08-22T06:42:53.807Z,99.90
2018-08-22T06:45:22.228Z,99.90
2018-08-22T06:47:50.706Z,99.90
2018-08-22T06:50:19.221Z,99.90
2018-08-22T06:52:47.603Z,99.90
2018-08-22T06:55:16.104Z,99.90
2018-08-22T06:57:44.533Z,99.90
2018-08-22T07:00:12.983Z,99.90
2018-08-22T07:02:41.399Z,99.90
2018-08-22T07:05:09.924Z,99.90
2018-08-22T07:07:38.339Z,99.90
2018-08-22T07:10:06.792Z,99.90
2018-08-22T07:12:35.220Z,99.90
2018-08-22T07:15:03.680Z,99.90
2018-08-22T07:17:32.113Z,99.90
2018-08-22T07:20:00.550Z,99.90
2018-08-22T07:22:28.999Z,99.90
2018-08-22T07:24:57.450Z,99.90
2018-08-22T07:27:25.880Z,99.90
2018-08-22T07:29:54.326Z,99.90
2018-08-22T07:32:22.750Z,99.90
2018-08-22T07:34:51.184Z,99.90
2018-08-22T07:37:19.887Z,99.90
2018-08-22T07:39:48.337Z,99.90
2018-08-22T07:42:16.746Z,99.90
2018-08-22T07:44:45.223Z,99.90
2018-08-22T07:47:13.710Z,99.90
2018-08-22T07:49:42.192Z,99.70
2018-08-22T07:52:10.638Z,99.60
2018-08-22T07:54:46.235Z,99.90
2018-08-22T07:57:17.076Z,98.00
2018-08-22T07:59:45.483Z,96.40
2018-08-22T08:02:14.020Z,96.80
2018-08-22T08:04:42.475Z,98.30
2018-08-22T08:07:11.027Z,98.40
2018-08-22T08:09:39.444Z,98.10
2018-08-22T08:12:07.891Z,97.30
2018-08-22T08:14:36.307Z,96.50
2018-08-22T08:17:04.886Z,97.20
2018-08-22T08:19:33.288Z,97.20
2018-08-22T08:22:01.804Z,96.40
2018-08-22T08:24:30.416Z,95.50
2018-08-22T08:26:58.859Z,94.30
2018-08-22T08:29:27.275Z,94.30
2018-08-22T08:31:55.712Z,93.70
2018-08-22T08:34:24.195Z,94.70
2018-08-22T08:36:52.734Z,95.30
2018-08-22T08:39:21.297Z,95.70
2018-08-22T08:41:49.810Z,94.30
2018-08-22T08:44:18.176Z,94.70
2018-08-22T08:46:46.708Z,92.80
2018-08-22T08:49:15.199Z,93.50
2018-08-22T08:51:55.021Z,91.40
2018-08-22T08:54:23.467Z,91.70
2018-08-22T08:56:52.132Z,92.10
2018-08-22T08:59:20.834Z,89.40
2018-08-22T09:01:49.306Z,90.70
2018-08-22T09:04:17.751Z,88.40
2018-08-22T09:06:46.475Z,87.60
2018-08-22T09:09:14.904Z,86.70
2018-08-22T09:11:46.431Z,85.60
2018-08-22T09:14:14.897Z,82.20
2018-08-22T09:16:43.418Z,82.30
2018-08-22T09:19:11.919Z,82.60
2018-08-22T09:21:40.463Z,82.70
2018-08-22T09:24:09.009Z,84.60
2018-08-22T09:26:37.364Z,81.20
2018-08-22T09:29:05.847Z,80.60
2018-08-22T09:31:34.279Z,80.70
2018-08-22T09:34:02.731Z,82.80
2018-08-22T09:36:31.230Z,82.30
2018-08-22T09:39:00.586Z,82.10
2018-08-22T09:41:29.111Z,80.10
2018-08-22T09:43:57.752Z,78.40
2018-08-22T09:46:26.297Z,79.40
2018-08-22T09:48:55.585Z,79.20
2018-08-22T09:51:24.089Z,76.10
2018-08-22T09:53:52.795Z,79.60
2018-08-22T09:56:21.243Z,77.00
2018-08-22T09:58:49.665Z,75.30
2018-08-22T10:01:28.155Z,77.80
2018-08-22T10:03:58.179Z,75.60
2018-08-22T10:06:36.269Z,74.20
2018-08-22T10:09:11.205Z,74.30
2018-08-22T10:11:39.676Z,76.90
2018-08-22T10:14:08.115Z,78.40
2018-08-22T10:16:36.643Z,77.20
2018-08-22T10:19:05.377Z,76.10
2018-08-22T10:21:33.770Z,74.90
2018-08-22T10:24:02.237Z,73.20
2018-08-22T10:26:30.741Z,73.10
2018-08-22T10:28:59.356Z,76.50
2018-08-22T10:31:27.831Z,73.10
2018-08-22T10:33:56.730Z,74.20
2018-08-22T10:36:25.408Z,75.40
2018-08-22T10:38:53.923Z,70.90
2018-08-22T10:41:22.435Z,68.40
2018-08-22T10:43:50.870Z,73.70
2018-08-22T10:46:19.292Z,69.90
2018-08-22T10:48:47.744Z,71.20
2018-08-22T10:51:16.297Z,71.20
2018-08-22T10:53:44.783Z,66.50
2018-08-22T10:56:13.315Z,69.20
2018-08-22T10:58:41.802Z,66.90
2018-08-22T11:01:10.222Z,68.90
2018-08-22T11:03:38.752Z,70.20
2018-08-22T11:06:07.231Z,71.20
2018-08-22T11:08:35.680Z,71.80
2018-08-22T11:11:04.155Z,72.00
2018-08-22T11:13:32.964Z,75.00
2018-08-22T11:16:01.502Z,71.10
2018-08-22T11:18:30.000Z,70.40
2018-08-22T11:21:09.710Z,70.70
2018-08-22T11:23:49.463Z,73.30
2018-08-22T11:26:29.234Z,72.60
2018-08-22T11:29:08.950Z,68.40
2018-08-22T11:31:48.738Z,73.80
2018-08-22T11:34:28.509Z,71.70
2018-08-22T11:37:01.883Z,73.00
2018-08-22T11:39:30.381Z,75.00
2018-08-22T11:41:58.850Z,70.70
2018-08-22T11:44:29.399Z,70.20
2018-08-22T11:46:57.848Z,71.60
2018-08-22T11:49:26.507Z,70.00
2018-08-22T11:51:55.210Z,69.80
2018-08-22T11:54:23.670Z,71.00
2018-08-22T11:56:52.117Z,72.70
2018-08-22T11:59:21.549Z,71.60
2018-08-22T12:01:51.191Z,74.00
2018-08-22T12:04:20.272Z,75.80
2018-08-22T12:06:48.752Z,72.70
2018-08-22T12:09:17.195Z,74.00
2018-08-22T12:11:45.618Z,74.20
2018-08-22T12:14:14.055Z,71.80
2018-08-22T12:16:42.783Z,70.90
2018-08-22T12:19:14.927Z,71.30
2018-08-22T12:21:43.495Z,71.50
2018-08-22T12:24:12.046Z,73.00
2018-08-22T12:26:40.460Z,74.30
2018-08-22T12:29:09.003Z,75.30
2018-08-22T12:31:37.439Z,76.10
2018-08-22T12:34:05.879Z,75.60
2018-08-22T12:36:34.302Z,76.20
2018-08-22T12:39:02.811Z,75.40
2018-08-22T12:41:31.285Z,76.30
2018-08-22T12:43:59.823Z,76.60
2018-08-22T12:46:28.514Z,75.50
2018-08-22T12:48:56.997Z,74.80
2018-08-22T12:51:25.426Z,74.10
2018-08-22T12:53:53.892Z,74.50
2018-08-22T12:56:22.337Z,74.10
2018-08-22T12:58:50.983Z,74.10
2018-08-22T13:01:19.423Z,75.50
2018-08-22T13:03:47.909Z,74.40
2018-08-22T13:06:16.347Z,75.80
2018-08-22T13:08:44.852Z,73.20
2018-08-22T13:11:13.378Z,74.00
2018-08-22T13:13:41.776Z,73.60
2018-08-22T13:16:10.262Z,73.20
2018-08-22T13:18:38.831Z,75.40
2018-08-22T13:21:07.276Z,75.40
2018-08-22T13:23:35.695Z,74.40
2018-08-22T13:26:04.131Z,74.60
2018-08-22T13:28:32.557Z,73.80
2018-08-22T13:31:01.023Z,75.70
2018-08-22T13:33:29.492Z,77.10
2018-08-22T13:35:58.052Z,75.80
2018-08-22T13:38:26.487Z,73.70
2018-08-22T13:40:54.900Z,73.30
2018-08-22T13:43:23.376Z,73.50
2018-08-22T13:45:51.923Z,71.80
2018-08-22T13:48:20.363Z,71.60
2018-08-22T13:50:48.832Z,72.70
2018-08-22T13:53:17.231Z,72.10
2018-08-22T13:55:45.698Z,71.30
2018-08-22T13:58:14.215Z,72.20
2018-08-22T14:00:42.630Z,72.10
2018-08-22T14:03:11.107Z,70.90
2018-08-22T14:05:39.576Z,70.50
2018-08-22T14:08:08.012Z,71.40
2018-08-22T14:10:36.452Z,70.40
2018-08-22T14:13:04.890Z,69.30
2018-08-22T14:15:33.416Z,70.20
2018-08-22T14:18:01.878Z,71.20
2018-08-22T14:20:30.612Z,70.20
2018-08-22T14:22:59.080Z,72.10
2018-08-22T14:25:27.680Z,70.00
2018-08-22T14:27:56.238Z,70.50
2018-08-22T14:30:24.673Z,69.40
2018-08-22T14:32:53.268Z,70.60
2018-08-22T14:35:21.690Z,70.40
2018-08-22T14:37:50.127Z,70.70
2018-08-22T14:40:18.777Z,71.40
2018-08-22T14:42:47.228Z,70.40
2018-08-22T14:45:15.683Z,73.10
2018-08-22T14:47:44.091Z,71.50
2018-08-22T14:50:12.922Z,72.50
2018-08-22T14:52:41.413Z,72.30
2018-08-22T14:55:09.874Z,73.30
2018-08-22T14:57:38.292Z,73.90
2018-08-22T15:00:07.320Z,72.10
2018-08-22T15:02:35.885Z,72.70
2018-08-22T15:05:04.228Z,71.40
2018-08-22T15:07:32.674Z,72.20
2018-08-22T15:10:01.181Z,73.40
2018-08-22T15:12:29.624Z,74.00
2018-08-22T15:14:58.112Z,73.80
2018-08-22T15:17:26.530Z,73.80
2018-08-22T15:19:55.136Z,74.60
2018-08-22T15:22:23.558Z,74.20
2018-08-22T15:24:52.218Z,74.30
2018-08-22T15:27:20.813Z,74.80
2018-08-22T15:29:49.267Z,76.30
2018-08-22T15:32:17.681Z,72.40
2018-08-22T15:34:52.500Z,76.20
2018-08-22T15:37:21.479Z,80.30
2018-08-22T15:39:49.899Z,80.70
2018-08-22T15:42:18.396Z,81.00
2018-08-22T15:44:46.835Z,81.70
2018-08-22T15:47:15.458Z,82.00
2018-08-22T15:49:45.032Z,83.50
2018-08-22T15:52:13.531Z,84.60
2018-08-22T15:54:41.957Z,85.00
2018-08-22T15:57:10.428Z,86.50
2018-08-22T15:59:38.920Z,87.10
2018-08-22T16:02:07.512Z,88.00
2018-08-22T16:04:51.460Z,88.90
2018-08-22T16:07:20.125Z,88.80
2018-08-22T16:09:48.576Z,90.00
2018-08-22T16:12:17.060Z,90.10
2018-08-22T16:14:45.633Z,91.40
2018-08-22T16:17:14.107Z,91.80
2018-08-22T16:19:42.556Z,93.50
2018-08-22T16:22:11.033Z,94.10
2018-08-22T16:24:41.521Z,94.50
2018-08-22T16:27:10.016Z,96.10
2018-08-22T16:29:38.483Z,96.10
2018-08-22T16:32:07.053Z,96.50
2018-08-22T16:34:35.644Z,97.10
2018-08-22T16:37:04.126Z,99.90
2018-08-22T16:39:40.915Z,99.90
2018-08-22T16:42:10.116Z,99.80
2018-08-22T16:44:38.878Z,99.90
2018-08-22T16:47:07.633Z,99.90
2018-08-22T16:49:36.228Z,99.90
2018-08-22T16:52:04.713Z,99.90
2018-08-22T16:54:33.156Z,99.90
2018-08-22T16:57:01.621Z,99.90
2018-08-22T16:59:30.254Z,98.80
2018-08-22T17:01:58.807Z,98.40
2018-08-22T17:04:27.271Z,99.00
2018-08-22T17:06:57.789Z,98.70
2018-08-22T17:09:27.500Z,99.20
2018-08-22T17:11:56.034Z,99.20
2018-08-22T17:14:24.715Z,99.50
2018-08-22T17:16:53.197Z,98.60
2018-08-22T17:19:21.669Z,98.20
2018-08-22T17:21:50.104Z,98.20
2018-08-22T17:24:18.697Z,98.60
2018-08-22T17:26:47.140Z,99.10
2018-08-22T17:29:15.840Z,99.90
2018-08-22T17:31:50.069Z,99.10
2018-08-22T17:34:18.543Z,99.00
2018-08-22T17:36:57.209Z,98.30
2018-08-22T17:39:30.326Z,98.80
2018-08-22T17:41:58.892Z,99.00
2018-08-22T17:44:27.523Z,99.70
2018-08-22T17:46:55.963Z,99.90
2018-08-22T17:49:24.414Z,99.30
2018-08-22T17:51:57.128Z,98.70
2018-08-22T17:54:25.952Z,99.50
2018-08-22T17:57:06.519Z,99.80
2018-08-22T17:59:34.964Z,99.70
2018-08-22T18:02:03.588Z,99.90
2018-08-22T18:04:43.419Z,99.90
2018-08-22T18:07:11.923Z,99.90
2018-08-22T18:09:40.368Z,99.90
2018-08-22T18:12:08.985Z,99.90
2018-08-22T18:14:37.642Z,99.90
2018-08-22T18:17:06.631Z,99.90
2018-08-22T18:19:37.352Z,99.90
2018-08-22T18:22:05.955Z,99.90
2018-08-22T18:24:41.050Z,99.90
2018-08-22T18:27:10.068Z,99.90
2018-08-22T18:29:41.949Z,99.90
2018-08-22T18:32:11.067Z,99.90
2018-08-22T18:34:55.096Z,99.90
2018-08-22T18:37:24.175Z,99.90
2018-08-22T18:40:03.893Z,99.90
2018-08-22T18:42:32.395Z,99.90
2018-08-22T18:45:00.901Z,99.90
2018-08-22T18:47:30.565Z,99.90
2018-08-22T18:49:59.221Z,99.90
2018-08-22T18:52:27.736Z,99.90
2018-08-22T18:54:56.164Z,99.90
2018-08-22T18:57:24.701Z,99.90
2018-08-22T18:59:53.218Z,99.90
2018-08-22T19:02:21.831Z,99.90
2018-08-22T19:04:50.287Z,99.90
2018-08-22T19:07:18.762Z,99.90
2018-08-22T19:09:47.174Z,99.90
2018-08-22T19:12:15.662Z,99.90
2018-08-22T19:14:46.431Z,99.90
2018-08-22T19:17:16.410Z,99.90
2018-08-22T19:19:47.722Z,99.90
2018-08-22T19:22:18.178Z,99.90
2018-08-22T19:25:03.086Z,99.90
2018-08-22T19:27:33.871Z,99.90
2018-08-22T19:30:05.130Z,99.90
2018-08-22T19:32:33.690Z,99.90
2018-08-22T19:35:02.155Z,99.90
2018-08-22T19:37:30.663Z,99.90
2018-08-22T19:40:08.412Z,99.90
2018-08-22T19:42:38.300Z,99.90
2018-08-22T19:45:08.114Z,99.90
2018-08-22T19:47:38.885Z,99.90
2018-08-22T19:50:08.579Z,99.90
2018-08-22T19:52:37.072Z,99.90
2018-08-22T19:55:06.664Z,99.90
2018-08-22T19:57:37.657Z,99.90
2018-08-22T20:00:10.622Z,99.90
2018-08-22T20:02:39.235Z,99.90
2018-08-22T20:05:09.451Z,99.90
2018-08-22T20:07:38.375Z,99.90
2018-08-22T20:10:07.607Z,99.90
2018-08-22T20:12:43.938Z,99.90
2018-08-22T20:15:12.441Z,99.90
2018-08-22T20:17:40.999Z,99.90
2018-08-22T20:20:10.633Z,99.90
2018-08-22T20:22:42.136Z,99.90
2018-08-22T20:25:11.204Z,99.90
2018-08-22T20:27:40.122Z,99.90
2018-08-22T20:30:19.383Z,99.90
2018-08-22T20:32:58.591Z,99.90
2018-08-22T20:35:28.619Z,99.90
2018-08-22T20:37:58.934Z,99.90
2018-08-22T20:40:27.419Z,99.90
2018-08-22T20:42:56.301Z,99.90
2018-08-22T20:45:39.354Z,99.90
2018-08-22T20:48:13.152Z,99.90
2018-08-22T20:50:43.013Z,99.90
2018-08-22T20:53:13.167Z,99.90
2018-08-22T20:55:41.596Z,99.90
2018-08-22T20:58:44.664Z,99.90
2018-08-22T21:01:13.138Z,99.90
2018-08-22T21:03:41.659Z,99.90
2018-08-22T21:06:10.776Z,99.90
2018-08-22T21:08:39.272Z,99.90
2018-08-22T21:11:07.784Z,99.90
2018-08-22T21:13:36.381Z,99.90
2018-08-22T21:16:04.818Z,99.90
2018-08-22T21:18:33.303Z,99.90
2018-08-22T21:21:03.375Z,99.90
2018-08-22T21:23:31.826Z,99.90
2018-08-22T21:26:00.300Z,99.90
2018-08-22T21:28:33.407Z,99.90
2018-08-22T21:31:02.115Z,99.90
2018-08-22T21:33:31.424Z,99.90
2018-08-22T21:35:59.987Z,99.90
2018-08-22T21:38:28.485Z,99.90
2018-08-22T21:40:57.101Z,99.90
2018-08-22T21:43:25.748Z,99.90
2018-08-22T21:45:54.186Z,99.90
2018-08-22T21:48:24.498Z,99.90
2018-08-22T21:50:52.945Z,99.90
2018-08-22T21:53:21.474Z,99.90
2018-08-22T21:55:51.509Z,99.90
2018-08-22T21:58:19.970Z,99.90
2018-08-22T22:00:48.426Z,99.90
2018-08-22T22:03:33.547Z,99.90
2018-08-22T22:06:02.939Z,99.90
2018-08-22T22:08:31.428Z,99.90
2018-08-22T22:11:05.065Z,99.90
2018-08-22T22:13:33.605Z,99.90
2018-08-22T22:16:03.978Z,99.90
2018-08-22T22:18:33.630Z,99.90
2018-08-22T22:21:07.851Z,99.90
2018-08-22T22:23:42.916Z,99.90
2018-08-22T22:26:11.827Z,99.90
2018-08-22T22:28:40.664Z,99.90
2018-08-22T22:31:12.339Z,99.90
2018-08-22T22:33:57.861Z,99.90
2018-08-22T22:36:26.335Z,99.90
2018-08-22T22:38:54.861Z,99.90
2018-08-22T22:41:25.861Z,99.90
2018-08-22T22:43:54.326Z,99.90
2018-08-22T22:46:22.846Z,99.90
2018-08-22T22:48:51.331Z,99.90
2018-08-22T22:51:19.777Z,99.90
2018-08-22T22:53:48.210Z,99.90
2018-08-22T22:56:16.659Z,99.90
2018-08-22T22:58:45.088Z,99.90
2018-08-22T23:01:13.581Z,99.90
2018-08-22T23:03:42.436Z,99.90
2018-08-22T23:06:10.924Z,99.90
2018-08-22T23:08:39.390Z,99.90
2018-08-22T23:11:07.870Z,99.90
2018-08-22T23:13:36.287Z,99.90
2018-08-22T23:16:04.803Z,99.90
2018-08-22T23:18:33.279Z,99.90
2018-08-22T23:21:01.959Z,99.90
2018-08-22T23:23:33.830Z,99.90
2018-08-22T23:26:09.582Z,99.90
2018-08-22T23:28:38.030Z,99.90
2018-08-22T23:31:06.505Z,99.90
2018-08-22T23:33:34.972Z,99.90
2018-08-22T23:36:03.395Z,99.90
2018-08-22T23:38:33.110Z,99.90
2018-08-22T23:41:02.431Z,99.90
2018-08-22T23:43:39.734Z,99.90
2018-08-22T23:46:09.750Z,99.90
2018-08-22T23:48:38.756Z,99.90
2018-08-22T23:51:09.417Z,99.90
2018-08-22T23:53:43.255Z,99.90
2018-08-22T23:56:17.861Z,99.90
2018-08-22T23:58:47.338Z,99.90
